Track Винокуров Стас

Time Latitude Longitude Accuracy (66% radius in meters) Altitude (meters) Speed (km/hour) Bearing (degrees) Battery (%) GPS flag
10:06:04 44.567047 38.175777 8 64.967491909435 0.1490157097578 359.49551391602 88 1 delete
10:05:58 44.567013 38.175790 8 66.18673218881 0.039600245654583 359.49551391602 88 1 delete
10:05:49 44.566972 38.175781 8 67.517624936678 0.19927632808685 359.49551391602 88 1 delete
10:05:40 44.566962 38.175772 12 68.558356554701 0.23236411809921 359.49551391602 88 1 delete
10:05:31 44.566986 38.175721 8 69.111436573049 0.24246141314507 39.021598815918 88 1 delete
10:05:22 44.566975 38.175695 4 70.06180662698 0.016952933743596 339.8987121582 88 1 delete
10:05:10 44.566962 38.175687 8 71.445735965979 0.23026248812675 2.0464072227478 88 1 delete
10:04:58 44.566953 38.175705 8 71.26175241929 0.13474588096142 50.018489837646 88 1 delete
10:04:46 44.566938 38.175741 8 70.216722953174 0.21841996908188 50.018489837646 88 1 delete
10:04:34 44.566932 38.175744 8 69.571765989233 0.33388575911522 49.758449554443 90 1 delete
10:04:25 44.566946 38.175753 8 69.262943865526 0.3661715388298 73.427627563477 90 1 delete
10:04:13 44.566954 38.175722 4 69.609954669408 0.22227936983109 30.290996551514 90 1 delete
10:04:01 44.566929 38.175721 8 69.986686144198 0.33998271822929 294.91046142578 90 1 delete
10:03:58 44.566913 38.175745 6 70.198644485378 0.48402491211891 290.62322998047 90 1 delete
10:03:49 44.566930 38.175828 8 70.380028926108 0.30017730593681 14.934520721436 90 1 delete
10:03:37 44.566912 38.175798 6 70.214945130523 0.50815492868423 100.32379150391 90 1 delete
10:03:28 44.566908 38.175792 8 69.084487373762 0.041135732084513 117.35331726074 90 1 delete
10:03:19 44.566923 38.175757 6 68.134010453711 0.31913098692894 148.30444335938 90 1 delete
10:03:16 44.566945 38.175718 6 68.183446663502 0.66158324480057 100.99598693848 90 1 delete
10:03:13 44.566948 38.175684 6 68.360569832866 1.6174510717392 32.437389373779 90 1 delete
10:03:10 44.566908 38.175646 6 68.280427483258 1.8067946434021 60.651889801025 90 1 delete
10:03:07 44.566866 38.175603 6 68.32213261772 1.9512338638306 18.409614562988 90 1 delete
10:03:04 44.566803 38.175586 4 68.331075105224 2.0579357147217 8.6864604949951 90 1 delete
10:03:01 44.566744 38.175573 8 68.260518788176 2.1018702983856 7.2072358131409 90 1 delete
10:02:58 44.566683 38.175544 6 68.226079232836 2.1289026737213 24.722036361694 90 1 delete
10:02:55 44.566630 38.175524 8 68.128345515017 2.0569760799408 16.780084609985 90 1 delete
10:02:52 44.566573 38.175473 6 68.143744387091 2.0347933769226 25.31459236145 90 1 delete
10:02:49 44.566519 38.175415 8 68.316257575468 1.996126294136 37.573471069336 90 1 delete
10:02:46 44.566473 38.175383 6 68.396677321974 2.0332319736481 58.308029174805 90 1 delete
10:02:43 44.566460 38.175289 8 68.318084008251 2.093727350235 77.415473937988 90 1 delete
10:02:37 44.566482 38.175136 6 68.195508659593 2.129869222641 118.44659423828 90 1 delete
10:02:34 44.566501 38.175053 6 68.288735103852 2.137912273407 106.46101379395 90 1 delete
10:02:31 44.566516 38.174968 8 68.453150857677 2.1130392551422 108.49800872803 90 1 delete
10:02:28 44.566546 38.174855 6 68.504813827725 2.0835337638855 105.34898376465 90 1 delete
10:02:25 44.566584 38.174780 6 68.756283206318 2.0594336986542 121.18061065674 90 1 delete
10:02:22 44.566618 38.174709 6 69.134541013834 2.0201935768127 124.77639007568 90 1 delete
10:02:19 44.566667 38.174642 4 69.509716451957 1.9977412223816 136.66030883789 90 1 delete
10:02:16 44.566719 38.174589 6 69.747054802055 1.9863992929459 135.3325958252 90 1 delete
10:02:13 44.566759 38.174536 4 70.016817962145 2.0351164340973 129.24765014648 90 1 delete
10:02:10 44.566800 38.174468 6 70.129488377362 2.0728237628937 122.00417327881 90 1 delete
10:02:07 44.566834 38.174391 6 70.064285660215 2.1354858875275 119.25045013428 90 1 delete
10:02:04 44.566864 38.174302 6 69.908394878278 2.2009711265564 107.21473693848 90 1 delete
10:02:01 44.566879 38.174223 6 70.084467523234 2.2460513114929 100.96088409424 90 1 delete
10:01:58 44.566892 38.174140 6 70.110831361777 2.2195534706116 90.146278381348 90 1 delete
10:01:55 44.566895 38.174055 6 70.031379729767 2.1459336280823 62.648220062256 90 1 delete
10:01:52 44.566855 38.173942 6 69.957772260235 2.0106921195984 63.911128997803 90 1 delete
10:01:49 44.566820 38.173834 6 69.924504079147 1.8512474298477 61.899662017822 90 1 delete
10:01:46 44.566779 38.173735 8 70.145027031585 1.8058230876923 37.388118743896 90 1 delete
10:01:43 44.566737 38.173665 6 70.433268122565 1.7347972393036 45.493312835693 90 1 delete
10:01:40 44.566686 38.173584 8 70.775804289461 1.8004523515701 27.910234451294 90 1 delete